Flight Track Log - Related Links

Times and Time Zones

All times are in EDT time to prevent confusion due to time zone crossing. See the AAL1201 flight status page for this flight to view local times or setup timezone preferences in your user account.

Time Position Orientation Groundspeed Altitude Reporting Facility
EDT Latitude Longitude Course Direction KTS MPH feet Rate Location/Type
Mon 05:05:17 PM 41.9167 -87.9333 189° South 195 224 2,600  Level Chicago TRACON
Mon 05:09:56 PM 41.5692 -88.0039 186° South 313 360 13,400 2,389 Climbing Chicago Center
Mon 05:10:56 PM 41.4422 -88.0231 193° South 358 412 16,100 2,400 Climbing Chicago Center
Mon 05:12:56 PM 41.2325 -88.0853 185° South 390 449 20,600 2,100 Climbing Chicago Center
Mon 05:13:56 PM 41.1139 -88.0986 186° South 409 471 22,400 2,000 Climbing Chicago Center
Mon 05:14:56 PM 41.0033 -88.1144 197° South 409 471 24,600 1,700 Climbing Chicago Center
Mon 05:15:56 PM 40.9058 -88.1547 204° Southwest 414 476 25,800 467 Climbing Chicago Center
Mon 05:17:56 PM 40.6925 -88.2819 203° Southwest 419 482 26,000 67 Climbing Chicago Center
Mon 05:18:56 PM 40.5867 -88.3411 203° Southwest 419 482 26,000  Level Chicago Center
Mon 05:21:23 PM 40.3281 -88.4861 202° Southwest 428 493 26,000  Level Kansas City Center
Mon 05:22:23 PM 40.2164 -88.5444 204° Southwest 428 493 26,000  Level Kansas City Center
Mon 05:23:23 PM 40.1008 -88.6111 202° Southwest 428 493 26,000  Level Kansas City Center
Mon 05:24:23 PM 39.9889 -88.6692 204° Southwest 428 493 26,000 -400 Level Kansas City Center
Mon 05:25:23 PM 39.8836 -88.7294 204° Southwest 428 493 25,200 -1,100 Descending Kansas City Center
Mon 05:26:23 PM 39.7781 -88.7892 203° Southwest 428 493 23,800 -1,450 Descending Kansas City Center
Mon 05:27:23 PM 39.6744 -88.8461 216° Southwest 421 484 22,300 -1,450 Descending Kansas City Center
Mon 05:28:23 PM 39.5806 -88.9342 223° Southwest 420 483 20,900 -1,350 Descending Kansas City Center
Mon 05:29:23 PM 39.5036 -89.0264 221° Southwest 405 466 19,600 -1,250 Descending Kansas City Center
Mon 05:30:23 PM 39.4242 -89.1158 221° Southwest 394 453 18,400 -1,350 Descending Kansas City Center
Mon 05:31:23 PM 39.3467 -89.2019 221° Southwest 383 441 16,900 -1,350 Descending Kansas City Center
Mon 05:32:23 PM 39.2811 -89.2767 220° Southwest 383 441 15,700 -1,500 Descending Kansas City Center
Mon 05:33:23 PM 39.1875 -89.3772 195° South 378 435 13,900 -1,768 Descending Kansas City Center
Mon 05:34:15 PM 39.1219 -89.3994 219° Southwest 356 410 12,400 -1,565 Descending FAA TRACON SMA TRACON (SMA)
Mon 05:34:55 PM 39.0744 -89.4492 220° Southwest 357 411 11,500 -1,125 Descending FAA TRACON SMA TRACON (SMA)
Mon 05:35:35 PM 39.0233 -89.5053 230° Southwest 347 399 10,900 -450 Descending FAA TRACON SMA TRACON (SMA)
Mon 05:36:15 PM 38.9869 -89.5617 240° Southwest 338 389 10,900 -225 Level FAA TRACON SMA TRACON (SMA)
Mon 05:36:55 PM 38.9556 -89.6311 225° Southwest 324 373 10,600 -675 Descending FAA TRACON SMA TRACON (SMA)
Mon 05:37:35 PM 38.9139 -89.6847 225° Southwest 303 349 10,000 -900 Descending FAA TRACON SMA TRACON (SMA)
Mon 05:38:15 PM 38.8781 -89.7306 224° Southwest 295 339 9,400 -1,050 Descending FAA TRACON SMA TRACON (SMA)
Mon 05:38:55 PM 38.8378 -89.7803 207° Southwest 289 333 8,600 -1,111 Descending FAA TRACON SMA TRACON (SMA)
Mon 05:39:36 PM 38.7881 -89.8131 207° Southwest 289 333 7,900 -825 Descending FAA TRACON SMA TRACON (SMA)
Mon 05:40:15 PM 38.7483 -89.8389 207° Southwest 261 300 7,500 -608 Descending FAA TRACON SMA TRACON (SMA)
Mon 05:40:55 PM 38.7075 -89.8650 206° Southwest 234 269 7,100 -815 Descending FAA TRACON SMA TRACON (SMA)
Mon 05:41:36 PM 38.6708 -89.8881 206° Southwest 212 244 6,400 -900 Descending FAA TRACON SMA TRACON (SMA)
Mon 05:42:15 PM 38.6408 -89.9064 216° Southwest 196 226 5,900 -835 Descending FAA TRACON SMA TRACON (SMA)
Mon 05:42:55 PM 38.6122 -89.9328 262° West 190 219 5,300 -741 Descending FAA TRACON SMA TRACON (SMA)
Mon 05:43:36 PM 38.6075 -89.9756 264° West 176 203 4,900 -375 Descending FAA TRACON SMA TRACON (SMA)
Mon 05:44:15 PM 38.6044 -90.0136 296° West 175 201 4,800 -456 Descending FAA TRACON SMA TRACON (SMA)
Mon 05:44:55 PM 38.6186 -90.0514 302° West 172 198 4,300 -741 Descending FAA TRACON SMA TRACON (SMA)
Mon 05:45:36 PM 38.6361 -90.0869 303° West 168 193 3,800 -593 Descending FAA TRACON SMA TRACON (SMA)
Mon 05:46:16 PM 38.6519 -90.1183 303° West 173 199 3,500 -450 Descending FAA TRACON SMA TRACON (SMA)

Login

Don't have an account? Register now (free) for customized features, flight alerts, and more!